Time;durP1;ratioP1;P1;durP2;ratioP2;P2;SDS_P1;SDS_P2;PMS_P1;PMS_P2;Temp;Humidity;BMP_temperature;BMP_pressure;BME280_temperature;BME280_humidity;BME280_pressure;Samples;Min_cycle;Max_cycle;Signal;HPM_P1;HPM_P2
2023/12/21 00:01:33;;;;;;;3.40;2.37;;;5.80;99.90;;;6.19;86.67;97712.78;10469111;28;20276;-69
2023/12/21 00:06:37;;;;;;;2.53;1.93;;;5.80;99.90;;;6.17;88.10;97710.91;10417220;28;20221;-66
2023/12/21 00:11:41;;;;;;;2.70;2.27;;;5.70;99.90;;;6.11;88.32;97718.09;10426877;28;20315;-69
2023/12/21 00:16:44;;;;;;;2.20;1.77;;;5.60;99.90;;;6.16;88.74;97715.13;10421644;28;20371;-70
2023/12/21 00:21:48;;;;;;;2.53;1.83;;;5.60;99.90;;;6.32;87.01;97723.06;10416047;28;20236;-65
2023/12/21 00:26:52;;;;;;;3.10;2.07;;;5.70;99.90;;;6.43;87.40;97710.22;10424751;28;20317;-65
2023/12/21 00:31:55;;;;;;;2.23;2.00;;;5.80;99.90;;;6.29;87.51;97697.44;10447436;28;20228;-66
2023/12/21 00:36:58;;;;;;;2.20;2.10;;;5.80;99.90;;;6.17;88.93;97706.72;10455513;28;20232;-69
2023/12/21 00:42:04;;;;;;;1.90;1.80;;;5.70;99.90;;;6.29;88.77;97711.78;10462943;28;20247;-66
2023/12/21 00:47:07;;;;;;;1.97;1.77;;;5.80;99.90;;;6.20;91.19;97716.22;10453300;28;20681;-67
2023/12/21 00:52:10;;;;;;;2.30;2.20;;;5.80;99.90;;;6.03;92.70;97704.84;10454920;28;20216;-68
2023/12/21 00:57:14;;;;;;;2.10;2.00;;;5.60;99.90;;;5.97;93.60;97695.16;10469838;28;20727;-68
2023/12/21 01:02:18;;;;;;;2.17;1.97;;;5.50;99.90;;;6.08;94.25;97703.53;10465598;28;20430;-69
2023/12/21 01:07:21;;;;;;;2.90;2.10;;;5.50;99.90;;;5.80;96.53;97683.75;10450084;28;20298;-69
2023/12/21 01:12:31;;;;;;;2.30;2.00;;;5.30;99.90;;;5.77;98.79;97675.91;10461899;28;20255;-69
2023/12/21 01:17:35;;;;;;;2.33;2.23;;;5.30;99.90;;;5.59;100.00;97670.41;10475072;28;20643;-69
2023/12/21 01:22:38;;;;;;;2.33;2.20;;;5.10;99.90;;;5.35;100.00;97664.44;10460382;28;20225;-66
2023/12/21 01:27:43;;;;;;;2.63;2.33;;;5.00;99.90;;;5.36;100.00;97660.25;10479330;28;20228;-68
2023/12/21 01:32:46;;;;;;;2.17;2.07;;;5.00;99.90;;;5.34;100.00;97644.03;10473071;28;20634;-70
2023/12/21 01:37:49;;;;;;;2.13;2.03;;;4.90;99.90;;;5.31;100.00;97652.28;10469573;28;20315;-69
2023/12/21 01:42:54;;;;;;;3.10;2.00;;;4.90;99.90;;;5.59;100.00;97639.09;10443580;28;20604;-68
2023/12/21 01:47:57;;;;;;;2.23;2.07;;;5.00;99.90;;;5.45;100.00;97648.25;10444414;28;20727;-69
2023/12/21 01:53:02;;;;;;;2.10;2.00;;;5.00;99.90;;;5.52;100.00;97626.75;10471190;28;20228;-69
2023/12/21 01:58:07;;;;;;;1.93;1.83;;;5.00;99.90;;;5.51;100.00;97619.94;10483966;28;20255;-67
2023/12/21 02:03:10;;;;;;;2.20;2.10;;;5.00;99.90;;;5.60;100.00;97605.38;10491516;28;20286;-67
2023/12/21 02:08:13;;;;;;;2.03;1.93;;;5.00;99.90;;;5.61;100.00;97602.97;10492514;28;20323;-65
2023/12/21 02:13:18;;;;;;;2.00;1.90;;;5.10;99.90;;;5.28;100.00;97581.13;10472453;28;20535;-65
2023/12/21 02:18:22;;;;;;;2.43;2.23;;;5.00;99.90;;;5.38;100.00;97591.16;10408943;28;20575;-66
2023/12/21 02:23:28;;;;;;;2.23;1.93;;;4.90;99.90;;;5.30;100.00;97583.78;10425495;28;20319;-66
2023/12/21 02:28:32;;;;;;;2.30;2.10;;;4.90;99.90;;;5.60;100.00;97572.41;10494491;28;20235;-69
2023/12/21 02:33:36;;;;;;;2.23;2.03;;;5.10;99.90;;;5.62;100.00;97573.41;10418112;28;20229;-69
2023/12/21 02:38:39;;;;;;;1.97;1.87;;;5.10;99.90;;;5.63;100.00;97547.28;10406274;28;20316;-66
2023/12/21 02:43:43;;;;;;;2.30;2.13;;;5.20;99.90;;;5.60;100.00;97534.38;10407865;28;20252;-66
2023/12/21 02:48:47;;;;;;;1.80;1.70;;;5.30;99.90;;;5.57;100.00;97529.09;10487110;28;20722;-66
2023/12/21 02:53:50;;;;;;;2.07;1.93;;;5.20;99.90;;;5.74;100.00;97523.56;10490101;28;20236;-66
2023/12/21 02:58:54;;;;;;;1.70;1.60;;;5.30;99.90;;;5.79;100.00;97501.06;10493267;28;20736;-67
2023/12/21 03:03:59;;;;;;;1.77;1.67;;;5.30;99.90;;;5.97;100.00;97492.22;10490300;28;20234;-66
2023/12/21 03:09:03;;;;;;;1.57;1.47;;;5.50;99.90;;;5.77;100.00;97483.19;10447030;28;20282;-66
2023/12/21 03:14:07;;;;;;;1.90;1.80;;;5.40;99.90;;;6.04;99.08;97458.91;10456990;28;20780;-67
2023/12/21 03:19:11;;;;;;;1.97;1.80;;;5.60;99.90;;;5.96;100.00;97465.09;10450208;28;20378;-66
2023/12/21 03:24:14;;;;;;;1.60;1.53;;;5.60;99.90;;;6.06;99.96;97457.31;10469472;28;20286;-67
2023/12/21 03:29:18;;;;;;;1.83;1.73;;;5.60;99.90;;;5.98;100.00;97447.44;10491843;28;20252;-66
2023/12/21 03:34:22;;;;;;;1.93;1.80;;;5.60;99.90;;;5.99;100.00;97442.47;10492557;28;21038;-69
2023/12/21 03:39:25;;;;;;;1.57;1.57;;;5.60;99.90;;;5.97;100.00;97425.41;10464897;28;20229;-69
2023/12/21 03:44:30;;;;;;;1.70;1.60;;;5.50;99.90;;;5.97;100.00;97433.00;10450415;28;20319;-69
2023/12/21 03:49:33;;;;;;;1.77;1.67;;;5.60;99.90;;;5.95;100.00;97417.69;10477184;28;20716;-70
2023/12/21 03:54:36;;;;;;;1.50;1.50;;;5.60;99.90;;;6.06;100.00;97426.00;10484686;28;20238;-71
2023/12/21 03:59:42;;;;;;;1.47;1.47;;;5.60;99.90;;;6.01;100.00;97422.28;10471970;28;20274;-72
2023/12/21 04:04:45;;;;;;;1.70;1.70;;;5.60;99.90;;;5.87;100.00;97404.47;10429346;28;20228;-65
2023/12/21 04:09:49;;;;;;;1.47;1.47;;;5.50;99.90;;;5.92;100.00;97401.34;10482234;28;20236;-70
2023/12/21 04:14:54;;;;;;;1.60;1.53;;;5.60;99.90;;;6.07;100.00;97398.22;10487956;28;20518;-71
2023/12/21 04:19:58;;;;;;;1.70;1.60;;;5.60;99.90;;;6.22;100.00;97388.19;10457091;28;20328;-67
2023/12/21 04:25:01;;;;;;;1.80;1.70;;;5.70;99.90;;;6.12;100.00;97375.69;10410734;28;20443;-66
2023/12/21 04:30:07;;;;;;;1.57;1.47;;;5.70;99.90;;;6.21;100.00;97371.22;10409081;28;20244;-67
2023/12/21 04:35:11;;;;;;;1.50;1.50;;;5.70;99.90;;;6.17;100.00;97359.09;10428558;28;20221;-67
2023/12/21 04:40:15;;;;;;;1.57;1.57;;;5.70;99.90;;;6.02;100.00;97345.41;10448087;28;20228;-67
2023/12/21 04:45:19;;;;;;;1.47;1.47;;;5.60;99.90;;;6.03;100.00;97339.56;10414362;28;20287;-66
2023/12/21 04:50:22;;;;;;;1.57;1.57;;;5.60;99.90;;;5.91;100.00;97331.13;10474587;28;20821;-65
2023/12/21 04:55:26;;;;;;;1.70;1.60;;;5.60;99.90;;;6.04;100.00;97327.00;10491194;28;20273;-66
2023/12/21 05:00:30;;;;;;;1.67;1.60;;;5.60;99.90;;;6.10;100.00;97316.38;10481496;28;20632;-66
2023/12/21 05:05:33;;;;;;;1.40;1.33;;;5.70;99.90;;;6.14;100.00;97292.06;10474953;28;20236;-66
2023/12/21 05:10:37;;;;;;;1.20;1.20;;;5.70;99.90;;;6.06;100.00;97278.88;10468553;28;20744;-69
2023/12/21 05:15:41;;;;;;;1.30;1.30;;;5.70;99.90;;;6.17;100.00;97294.81;10444034;28;20387;-68
2023/12/21 05:20:45;;;;;;;1.40;1.40;;;5.80;99.90;;;6.10;100.00;97301.16;10432976;28;20243;-69
2023/12/21 05:25:48;;;;;;;1.37;1.37;;;5.80;99.90;;;6.05;100.00;97302.50;10417309;28;20240;-69
2023/12/21 05:30:52;;;;;;;1.60;1.60;;;5.70;99.90;;;6.10;100.00;97291.00;10433404;28;20319;-69
2023/12/21 05:35:56;;;;;;;1.60;1.60;;;5.70;99.90;;;6.12;100.00;97288.53;10432663;28;20221;-69
2023/12/21 05:40:59;;;;;;;1.70;1.60;;;5.80;99.90;;;6.25;100.00;97270.81;10459526;28;20231;-69
2023/12/21 05:46:04;;;;;;;1.37;1.27;;;5.90;99.90;;;6.31;100.00;97272.06;10473761;28;20338;-68
2023/12/21 05:51:07;;;;;;;1.73;1.63;;;6.10;99.90;;;6.32;100.00;97281.44;10420128;28;20229;-70
2023/12/21 05:56:10;;;;;;;1.53;1.53;;;6.10;99.90;;;6.31;100.00;97272.06;10409278;28;20221;-68
2023/12/21 06:01:15;;;;;;;1.60;1.60;;;6.10;99.90;;;6.37;100.00;97265.63;10418142;28;20732;-68
2023/12/21 06:06:18;;;;;;;1.37;1.30;;;6.10;99.90;;;6.40;100.00;97265.81;10457282;28;20734;-67
2023/12/21 06:11:21;;;;;;;1.50;1.40;;;6.20;99.90;;;6.47;100.00;97252.75;10447361;28;20241;-69
2023/12/21 06:16:25;;;;;;;1.33;1.20;;;6.20;99.90;;;6.49;100.00;97243.53;10441680;28;20232;-69
2023/12/21 06:21:29;;;;;;;1.70;1.60;;;6.30;99.90;;;6.50;100.00;97222.47;10463544;28;20617;-69
2023/12/21 06:26:32;;;;;;;1.47;1.47;;;6.30;99.90;;;6.57;100.00;97214.44;10448364;28;20232;-69
2023/12/21 06:31:37;;;;;;;1.60;1.60;;;6.40;99.90;;;6.61;99.62;97185.03;10411686;28;20235;-66
2023/12/21 06:36:41;;;;;;;1.50;1.50;;;6.50;99.90;;;6.62;99.16;97167.38;10464062;28;20243;-66
2023/12/21 06:41:44;;;;;;;1.80;1.70;;;6.60;99.90;;;6.64;99.80;97140.41;10482963;28;20630;-69
2023/12/21 06:46:50;;;;;;;1.33;1.30;;;6.70;99.90;;;6.65;99.90;97142.16;10416330;28;20230;-69
2023/12/21 06:51:53;;;;;;;1.63;1.57;;;6.60;99.90;;;6.65;100.00;97137.09;10408617;28;20225;-69
2023/12/21 06:56:57;;;;;;;1.40;1.40;;;6.70;99.90;;;6.69;100.00;97146.63;10408109;28;20330;-68
2023/12/21 07:02:01;;;;;;;1.70;1.60;;;6.60;99.90;;;6.83;100.00;97141.50;10437599;28;20219;-68
2023/12/21 07:07:06;;;;;;;1.70;1.70;;;6.70;99.90;;;6.84;100.00;97143.25;10455655;28;20234;-69
2023/12/21 07:12:09;;;;;;;1.60;1.50;;;6.70;99.90;;;6.82;100.00;97130.47;10470790;28;20239;-68
2023/12/21 07:17:14;;;;;;;1.73;1.60;;;6.70;99.90;;;6.83;100.00;97118.66;10470901;28;20767;-69
2023/12/21 07:22:17;;;;;;;1.70;1.60;;;6.60;99.90;;;6.94;99.79;97112.53;10449711;28;20327;-69
2023/12/21 07:27:20;;;;;;;1.30;1.30;;;6.70;99.90;;;6.91;99.20;97104.75;10472032;28;20232;-67
2023/12/21 07:32:24;;;;;;;1.23;1.23;;;6.80;99.90;;;6.95;98.66;97093.97;10483661;28;20231;-68
2023/12/21 07:37:28;;;;;;;1.80;1.80;;;6.90;99.90;;;6.99;98.94;97099.31;10480824;28;20231;-66
2023/12/21 07:42:31;;;;;;;2.43;1.77;;;7.00;99.90;;;7.07;98.63;97102.31;10493175;28;20713;-69
2023/12/21 07:47:35;;;;;;;1.73;1.63;;;6.90;99.90;;;7.12;98.41;97087.31;10489729;28;20310;-65
2023/12/21 07:52:38;;;;;;;1.50;1.50;;;6.90;99.90;;;7.14;98.10;97093.38;10496959;28;20247;-66
2023/12/21 07:57:42;;;;;;;1.50;1.50;;;7.10;99.90;;;7.20;98.06;97081.88;10489033;28;20228;-67
2023/12/21 08:02:47;;;;;;;1.60;1.60;;;7.10;99.90;;;7.21;97.63;97086.19;10493226;28;20215;-65
2023/12/21 08:07:52;;;;;;;1.60;1.50;;;7.10;99.90;;;7.22;97.93;97077.78;10466459;28;20240;-66
2023/12/21 08:12:55;;;;;;;1.60;1.50;;;7.10;99.90;;;7.28;98.22;97068.75;10460459;28;20209;-68
2023/12/21 08:17:59;;;;;;;1.50;1.40;;;7.10;99.90;;;7.35;97.58;97063.22;10461211;28;20539;-66
2023/12/21 08:23:03;;;;;;;1.80;1.70;;;7.20;99.90;;;7.40;96.88;97062.69;10459688;28;20220;-70
2023/12/21 08:28:07;;;;;;;2.77;1.80;;;7.10;99.90;;;7.36;97.01;97052.28;10458571;28;20318;-67
2023/12/21 08:33:11;;;;;;;1.80;1.70;;;7.30;99.90;;;7.43;96.64;97051.81;10455505;28;20221;-68
2023/12/21 08:38:15;;;;;;;1.40;1.40;;;7.30;99.90;;;7.39;97.27;97040.59;10445885;28;20268;-68
2023/12/21 08:43:18;;;;;;;1.47;1.47;;;7.20;99.90;;;7.47;96.60;97038.50;10474910;28;20251;-69
2023/12/21 08:48:22;;;;;;;1.77;1.67;;;7.30;99.90;;;7.49;96.64;97031.81;10458932;28;20228;-69
2023/12/21 08:53:25;;;;;;;1.90;1.80;;;7.30;99.90;;;7.50;96.78;97043.75;10451053;28;20231;-68
2023/12/21 08:58:28;;;;;;;1.60;1.60;;;7.30;99.90;;;7.56;95.83;97049.16;10463404;28;20724;-69
2023/12/21 09:03:33;;;;;;;1.90;1.80;;;7.40;99.90;;;7.72;95.88;97042.38;10449804;28;20235;-69
2023/12/21 09:08:37;;;;;;;1.60;1.60;;;7.40;99.90;;;7.72;95.42;97010.19;10449297;28;20227;-68
2023/12/21 09:13:40;;;;;;;1.30;1.30;;;7.40;99.90;;;7.74;95.65;97007.72;10449118;28;20223;-69
2023/12/21 09:18:45;;;;;;;1.43;1.30;;;7.50;99.90;;;7.74;95.70;97012.81;10459394;28;20739;-68
2023/12/21 09:23:48;;;;;;;1.70;1.60;;;7.60;99.90;;;7.76;95.45;96986.69;10457881;28;20229;-67
2023/12/21 09:28:51;;;;;;;1.17;1.17;;;7.60;99.90;;;7.77;95.49;96972.28;10461106;28;20239;-72
2023/12/21 09:33:56;;;;;;;1.97;1.77;;;7.50;99.90;;;7.86;95.46;96942.22;10460910;28;20233;-73
2023/12/21 09:38:59;;;;;;;1.33;1.33;;;7.60;99.90;;;7.96;95.05;96949.56;10461267;28;20311;-68
2023/12/21 09:44:04;;;;;;;1.40;1.40;;;7.70;99.90;;;7.98;94.86;96962.34;10449916;28;20319;-68
2023/12/21 09:49:11;;;;;;;1.53;1.43;;;7.70;99.90;;;8.11;93.73;96940.16;10436539;28;20580;-68
2023/12/21 09:54:17;;;;;;;1.60;1.50;;;7.90;99.90;;;8.19;93.54;96904.06;10437460;28;20254;-68
2023/12/21 09:59:22;;;;;;;1.57;1.50;;;7.90;99.90;;;8.28;93.21;96901.97;10472864;28;20235;-69
2023/12/21 10:04:27;;;;;;;1.53;1.53;;;7.90;99.90;;;8.29;93.81;96884.22;10473020;28;20228;-68
2023/12/21 10:09:31;;;;;;;1.30;1.30;;;8.00;99.90;;;8.32;93.47;96863.13;10476540;28;20239;-68
2023/12/21 10:14:34;;;;;;;1.33;1.33;;;8.00;99.90;;;8.38;94.10;96862.56;10480003;28;20220;-69
2023/12/21 10:19:44;;;;;;;1.30;1.27;;;8.00;99.90;;;8.43;93.63;96834.03;10478866;28;20239;-69
2023/12/21 10:24:49;;;;;;;1.50;1.50;;;8.20;99.90;;;8.56;93.39;96815.13;10474709;28;20223;-68
2023/12/21 10:29:54;;;;;;;1.17;1.07;;;8.30;99.90;;;8.42;93.10;96799.19;10457592;28;20264;-68
2023/12/21 10:34:59;;;;;;;1.30;1.23;;;8.30;99.90;;;8.51;93.62;96788.56;10409888;28;20232;-69
2023/12/21 10:40:05;;;;;;;1.10;1.03;;;8.30;99.90;;;8.56;92.97;96761.66;10418553;28;20236;-67
2023/12/21 10:45:09;;;;;;;1.80;1.70;;;8.40;99.90;;;8.48;94.17;96740.91;10418230;28;20350;-70
2023/12/21 10:50:30;;;;;;;1.57;1.50;;;8.40;99.90;;;8.51;94.84;96730.84;10414025;28;21554;-69
2023/12/21 10:55:35;;;;;;;1.40;1.30;;;8.40;99.90;;;8.63;94.01;96722.03;10427253;28;20228;-69
2023/12/21 11:00:39;;;;;;;1.30;1.20;;;8.50;99.90;;;8.74;93.56;96715.75;10405912;28;20256;-67
2023/12/21 11:05:44;;;;;;;1.00;1.00;;;8.60;99.90;;;8.73;93.41;96693.66;10406658;28;20616;-69
2023/12/21 11:10:49;;;;;;;2.00;1.30;;;8.60;99.90;;;8.76;93.96;96683.59;10426067;28;20228;-69
2023/12/21 11:15:53;;;;;;;1.20;1.20;;;8.60;99.90;;;8.82;93.90;96667.72;10421935;28;20336;-68
2023/12/21 11:21:02;;;;;;;1.33;1.33;;;8.60;99.90;;;8.79;93.35;96648.94;10404253;28;21823;-69
2023/12/21 11:26:07;;;;;;;1.13;1.07;;;8.60;99.90;;;8.88;92.57;96627.22;10408275;28;20235;-70
2023/12/21 11:31:14;;;;;;;1.30;1.30;;;8.70;99.90;;;8.83;93.50;96619.34;10405463;28;20363;-69
2023/12/21 11:36:25;;;;;;;1.10;1.10;;;8.70;99.90;;;8.82;93.60;96607.44;10407207;28;20311;-69
2023/12/21 11:41:28;;;;;;;1.50;1.40;;;8.70;99.90;;;8.94;93.39;96602.84;10435964;28;20235;-69
2023/12/21 11:46:33;;;;;;;1.43;1.33;;;8.70;99.90;;;8.88;93.68;96592.41;10406988;28;20308;-70
2023/12/21 11:51:49;;;;;;;1.57;1.47;;;8.80;99.90;;;8.85;95.08;96602.47;10410928;28;20230;-69
2023/12/21 11:56:53;;;;;;;1.20;1.20;;;8.60;99.90;;;8.92;94.54;96571.34;10411212;28;20255;-67
2023/12/21 12:01:56;;;;;;;1.60;1.50;;;8.60;99.90;;;8.88;94.58;96543.13;10408636;28;20241;-69
2023/12/21 12:07:03;;;;;;;1.10;1.10;;;8.60;99.90;;;8.78;95.95;96560.59;10444871;28;20237;-70
2023/12/21 12:12:07;;;;;;;6.95;6.35;;;8.70;99.90;;;8.70;99.62;96550.84;10476438;28;20239;-68
2023/12/21 12:17:10;;;;;;;1.20;1.20;;;8.40;99.90;;;8.61;100.00;96515.66;10467141;28;20239;-69
2023/12/21 12:22:15;;;;;;;1.13;1.13;;;8.20;99.90;;;8.51;100.00;96493.19;10474603;28;20219;-69
2023/12/21 12:27:18;;;;;;;1.73;1.73;;;8.20;99.90;;;8.53;100.00;96473.75;10473168;28;20239;-68
2023/12/21 12:32:22;;;;;;;1.60;1.60;;;8.30;99.90;;;8.49;100.00;96472.72;10464915;28;20228;-71
2023/12/21 12:37:26;;;;;;;2.20;1.50;;;8.20;99.90;;;8.44;100.00;96453.88;10437365;28;20234;-69
2023/12/21 12:42:30;;;;;;;1.53;1.43;;;8.10;99.90;;;8.37;100.00;96484.91;10421371;28;20721;-68
2023/12/21 12:47:33;;;;;;;1.30;1.30;;;8.00;99.90;;;8.19;100.00;96443.41;10471873;28;20604;-71
2023/12/21 12:52:40;;;;;;;1.63;1.60;;;7.90;99.90;;;8.10;100.00;96465.09;10479794;28;20307;-71
2023/12/21 12:57:46;;;;;;;1.43;1.33;;;7.90;99.90;;;8.18;100.00;96455.22;10446383;28;20740;-69
2023/12/21 13:02:50;;;;;;;1.67;1.57;;;7.90;99.90;;;8.08;100.00;96459.06;10413915;28;20222;-69
2023/12/21 13:07:54;;;;;;;1.50;1.50;;;7.70;99.90;;;8.09;100.00;96458.25;10458461;28;20319;-69
2023/12/21 13:12:57;;;;;;;6.27;5.20;;;7.70;99.90;;;8.10;100.00;96462.56;10449806;28;20220;-68
2023/12/21 13:18:01;;;;;;;2.50;2.30;;;7.90;99.90;;;8.11;100.00;96453.25;10430590;28;20236;-68
2023/12/21 13:23:06;;;;;;;1.40;1.30;;;7.80;99.90;;;8.08;100.00;96451.44;10458622;28;20228;-67
2023/12/21 13:28:09;;;;;;;1.90;1.80;;;7.80;99.90;;;8.19;100.00;96451.03;10425951;28;20233;-69
2023/12/21 13:33:20;;;;;;;1.97;1.87;;;7.80;99.90;;;8.18;100.00;96449.28;10429322;28;20233;-68
2023/12/21 13:38:25;;;;;;;1.83;1.73;;;7.90;99.90;;;8.03;100.00;96442.72;10457864;28;20240;-69
2023/12/21 13:43:28;;;;;;;1.67;1.60;;;7.70;99.90;;;8.00;100.00;96429.88;10419433;28;20225;-69
2023/12/21 13:48:33;;;;;;;1.40;1.40;;;7.60;99.90;;;8.07;100.00;96420.84;10441809;28;20237;-70
2023/12/21 13:53:38;;;;;;;1.43;1.33;;;7.60;99.90;;;8.03;100.00;96417.28;10471472;28;20711;-68
2023/12/21 13:58:41;;;;;;;1.60;1.50;;;7.70;99.90;;;8.02;100.00;96412.13;10445846;28;20231;-69
2023/12/21 14:03:44;;;;;;;1.83;1.83;;;7.80;99.90;;;8.01;100.00;96405.28;10472396;28;20228;-68
2023/12/21 14:08:49;;;;;;;1.43;1.43;;;7.70;99.90;;;8.05;100.00;96400.41;10415446;28;20248;-69
2023/12/21 14:13:52;;;;;;;1.90;1.80;;;7.80;99.90;;;7.96;100.00;96400.03;10410876;28;20239;-69
2023/12/21 14:18:55;;;;;;;1.50;1.40;;;7.80;99.90;;;8.09;100.00;96387.00;10441934;28;20315;-69
2023/12/21 14:24:00;;;;;;;1.50;1.50;;;7.80;99.90;;;8.07;100.00;96388.63;10468812;28;20228;-69
2023/12/21 14:29:03;;;;;;;1.20;1.20;;;7.80;99.90;;;8.18;100.00;96389.06;10481228;28;20232;-70
2023/12/21 14:34:07;;;;;;;1.40;1.40;;;7.80;99.90;;;8.20;100.00;96373.88;10447815;28;20673;-68
2023/12/21 14:39:15;;;;;;;6.60;5.37;;;7.90;99.90;;;8.22;100.00;96387.53;10433121;28;20697;-69
2023/12/21 14:44:18;;;;;;;4.20;3.67;;;7.90;99.90;;;8.20;100.00;96389.16;10409205;28;20311;-69
2023/12/21 14:49:21;;;;;;;2.70;2.50;;;7.90;99.90;;;8.26;100.00;96372.44;10432888;28;20240;-70
2023/12/21 14:54:25;;;;;;;2.10;2.00;;;8.00;99.90;;;8.29;100.00;96375.13;10475115;28;20668;-67
2023/12/21 14:59:28;;;;;;;2.57;2.37;;;8.00;99.90;;;8.27;100.00;96370.75;10474241;28;20629;-70
2023/12/21 15:04:33;;;;;;;2.47;2.35;;;7.90;99.90;;;8.29;100.00;96369.16;10432124;28;20232;-69
2023/12/21 15:09:38;;;;;;;2.77;2.57;;;8.00;99.90;;;8.36;100.00;96378.81;10422019;28;20993;-69
2023/12/21 15:14:41;;;;;;;2.47;2.20;;;8.10;99.90;;;8.32;100.00;96359.97;10412609;28;20674;-67
2023/12/21 15:19:44;;;;;;;2.60;2.47;;;8.10;99.90;;;8.40;100.00;96362.88;10444858;28;20235;-69
2023/12/21 15:24:50;;;;;;;3.57;3.27;;;8.20;99.90;;;8.45;100.00;96356.28;10457663;28;20217;-69
2023/12/21 15:29:53;;;;;;;4.47;4.07;;;8.10;99.90;;;8.47;100.00;96343.59;10481286;28;20591;-68
2023/12/21 15:34:56;;;;;;;2.53;2.33;;;8.10;99.90;;;8.43;100.00;96309.53;10418109;28;20603;-68
2023/12/21 15:40:01;;;;;;;1.87;1.83;;;8.10;99.90;;;8.40;100.00;96317.03;10423684;28;20238;-67
2023/12/21 15:45:05;;;;;;;4.00;3.80;;;8.10;99.90;;;8.49;100.00;96312.31;10470790;28;20290;-67
2023/12/21 15:50:09;;;;;;;3.10;2.90;;;8.20;99.90;;;8.53;100.00;96315.88;10478711;28;20239;-68
2023/12/21 15:55:14;;;;;;;3.00;2.80;;;8.20;99.90;;;8.56;100.00;96304.13;10415381;28;20228;-69
2023/12/21 16:00:18;;;;;;;4.73;4.27;;;8.30;99.90;;;8.53;100.00;96283.63;10406472;28;20229;-68
2023/12/21 16:05:22;;;;;;;8.77;7.13;;;8.30;99.90;;;8.64;100.00;96281.50;10411087;28;20229;-68
2023/12/21 16:10:26;;;;;;;4.70;3.40;;;8.30;99.90;;;8.77;100.00;96262.47;10428107;28;20264;-71
2023/12/21 16:15:29;;;;;;;3.40;3.03;;;8.50;99.90;;;8.80;100.00;96258.34;10479464;28;20568;-68
2023/12/21 16:20:33;;;;;;;2.23;1.90;;;8.60;99.90;;;8.69;100.00;96235.81;10423776;28;20233;-67
2023/12/21 16:25:37;;;;;;;3.97;3.60;;;8.50;99.90;;;8.69;100.00;96243.47;10422509;28;20233;-69
2023/12/21 16:30:40;;;;;;;2.60;2.40;;;8.40;99.90;;;8.83;100.00;96252.50;10415061;28;20221;-70
2023/12/21 16:35:43;;;;;;;3.93;3.30;;;8.60;99.90;;;8.73;100.00;96266.59;10447400;28;20232;-69
2023/12/21 16:40:48;;;;;;;2.20;2.10;;;8.40;99.90;;;8.70;100.00;96250.28;10486908;28;20257;-70
2023/12/21 16:45:52;;;;;;;1.70;1.60;;;8.50;99.90;;;8.73;100.00;96228.38;10448704;28;20234;-68
2023/12/21 16:50:56;;;;;;;4.07;3.77;;;8.50;99.90;;;8.60;100.00;96254.19;10482249;28;20312;-70
2023/12/21 16:56:01;;;;;;;11.03;9.93;;;8.40;99.90;;;8.70;100.00;96268.13;10462862;28;20223;-69
2023/12/21 17:01:04;;;;;;;2.80;2.60;;;8.50;99.90;;;8.65;100.00;96293.44;10460955;28;20225;-68
2023/12/21 17:06:08;;;;;;;1.80;1.70;;;8.40;99.90;;;8.70;100.00;96291.94;10459292;28;20422;-71
2023/12/21 17:11:12;;;;;;;2.20;2.00;;;8.30;99.90;;;8.80;100.00;96296.56;10461278;28;20228;-69
2023/12/21 17:16:22;;;;;;;1.80;1.70;;;8.50;99.90;;;8.74;100.00;96305.66;10457924;28;20605;-69
2023/12/21 17:21:25;;;;;;;2.28;2.08;;;8.50;99.90;;;8.71;100.00;96308.94;10447931;28;20239;-68
2023/12/21 17:26:30;;;;;;;1.80;1.70;;;8.40;99.90;;;8.75;100.00;96310.78;10454530;28;20225;-68
2023/12/21 17:31:33;;;;;;;2.00;1.90;;;8.50;99.90;;;8.75;100.00;96330.31;10453208;28;20233;-68
2023/12/21 17:36:36;;;;;;;1.90;1.80;;;8.40;99.90;;;8.78;100.00;96316.03;10442860;28;20249;-69
2023/12/21 17:41:43;;;;;;;1.98;1.88;;;8.50;99.90;;;8.84;100.00;96319.59;10452764;28;20287;-69
2023/12/21 17:46:46;;;;;;;1.90;1.80;;;8.50;99.90;;;8.90;100.00;96330.03;10446579;28;20221;-69
2023/12/21 17:51:49;;;;;;;2.08;1.98;;;8.60;99.90;;;8.97;100.00;96312.50;10451818;28;20233;-69
2023/12/21 17:56:53;;;;;;;2.67;2.00;;;8.60;99.90;;;8.92;100.00;96310.56;10453690;28;20746;-69
2023/12/21 18:01:56;;;;;;;1.90;1.80;;;8.60;99.90;;;8.95;100.00;96314.09;10450963;28;20235;-68
2023/12/21 18:07:00;;;;;;;2.17;2.05;;;8.50;99.90;;;9.02;100.00;96305.03;10457101;28;20225;-68
2023/12/21 18:12:05;;;;;;;2.25;2.15;;;8.50;99.90;;;8.88;100.00;96306.19;10459603;28;20232;-70
2023/12/21 18:17:08;;;;;;;2.58;2.38;;;8.40;99.90;;;8.93;100.00;96295.34;10462424;28;20220;-68
2023/12/21 18:22:13;;;;;;;2.20;2.05;;;8.50;99.90;;;8.97;100.00;96297.19;10464304;28;20232;-69
2023/12/21 18:27:18;;;;;;;2.10;2.00;;;8.50;99.90;;;9.00;100.00;96282.03;10454644;28;20659;-68
2023/12/21 18:32:21;;;;;;;8.02;6.22;;;8.50;99.90;;;9.09;100.00;96260.25;10464802;28;20444;-69
2023/12/21 18:37:24;;;;;;;3.63;3.42;;;8.70;99.90;;;9.08;100.00;96239.00;10466647;28;20308;-68
2023/12/21 18:42:29;;;;;;;2.47;2.28;;;8.70;99.90;;;8.94;100.00;96241.03;10455432;28;20231;-69
2023/12/21 18:47:32;;;;;;;3.45;2.30;;;8.70;99.90;;;9.05;100.00;96218.50;10473192;28;20227;-69
2023/12/21 18:52:35;;;;;;;3.00;2.80;;;8.70;99.90;;;9.02;100.00;96219.25;10476085;28;20715;-69
2023/12/21 18:57:40;;;;;;;1.67;1.60;;;8.70;99.90;;;9.06;100.00;96214.25;10462789;28;20307;-71
2023/12/21 19:02:43;;;;;;;2.10;2.00;;;8.70;99.90;;;9.08;100.00;96203.31;10457438;28;20366;-69
2023/12/21 19:07:46;;;;;;;2.13;1.92;;;8.70;99.90;;;9.05;100.00;96200.66;10451494;28;20664;-69
2023/12/21 19:12:51;;;;;;;2.17;2.08;;;8.70;99.90;;;9.02;100.00;96196.31;10461768;28;20231;-69
2023/12/21 19:17:54;;;;;;;2.45;2.10;;;8.80;99.90;;;8.97;100.00;96220.75;10452730;28;20231;-69
2023/12/21 19:22:58;;;;;;;2.20;2.00;;;8.70;99.90;;;8.91;100.00;96235.81;10451861;28;20228;-69
2023/12/21 19:28:02;;;;;;;3.53;2.33;;;8.60;99.90;;;8.85;100.00;96248.34;10449504;28;20717;-70
2023/12/21 19:33:13;;;;;;;2.63;2.17;;;8.60;99.90;;;8.81;100.00;96305.06;10448385;28;20224;-70
2023/12/21 19:38:16;;;;;;;1.73;1.63;;;8.60;99.90;;;8.22;100.00;96296.78;10460200;28;20315;-69
2023/12/21 19:43:21;;;;;;;3.73;2.07;;;8.10;99.90;;;7.87;100.00;96357.25;10463336;28;20224;-70
2023/12/21 19:48:24;;;;;;;3.27;1.93;;;7.80;99.90;;;7.89;100.00;96368.34;10466806;28;20235;-70
2023/12/21 19:53:28;;;;;;;3.20;1.83;;;7.70;99.90;;;7.75;100.00;96363.47;10470421;28;20351;-69
2023/12/21 19:58:32;;;;;;;3.60;2.30;;;7.50;99.90;;;7.85;100.00;96366.47;10476062;28;20238;-69
2023/12/21 20:03:38;;;;;;;2.73;2.53;;;7.50;99.90;;;7.70;100.00;96370.03;10454732;28;20713;-69
2023/12/21 20:08:41;;;;;;;3.23;2.93;;;7.40;99.90;;;7.77;100.00;96367.81;10460557;28;20330;-69
2023/12/21 20:13:45;;;;;;;2.63;2.43;;;7.40;99.90;;;7.79;100.00;96357.72;10472357;28;20224;-69
2023/12/21 20:18:49;;;;;;;3.57;3.13;;;7.40;99.90;;;7.68;100.00;96358.13;10466150;28;20229;-70
2023/12/21 20:23:52;;;;;;;2.40;2.20;;;7.30;99.90;;;7.72;100.00;96328.59;10457476;28;20232;-70
2023/12/21 20:28:56;;;;;;;3.40;2.80;;;7.30;99.90;;;7.53;100.00;96339.66;10461112;28;20232;-69
2023/12/21 20:33:59;;;;;;;3.10;2.90;;;7.20;99.90;;;7.67;100.00;96347.91;10465029;28;20224;-69
2023/12/21 20:39:03;;;;;;;5.10;2.70;;;7.20;99.90;;;7.98;100.00;96362.78;10458441;28;20700;-70
2023/12/21 20:44:08;;;;;;;4.30;2.60;;;7.50;99.90;;;7.95;100.00;96367.72;10468487;28;20286;-70
2023/12/21 20:49:12;;;;;;;2.87;2.57;;;7.60;99.90;;;8.11;100.00;96382.84;10461257;28;20756;-69
2023/12/21 20:54:17;;;;;;;3.63;2.47;;;7.70;99.90;;;7.99;100.00;96400.16;10415354;28;20709;-69
2023/12/21 20:59:21;;;;;;;3.63;2.60;;;7.70;99.90;;;8.15;100.00;96385.53;10422517;28;20611;-69
2023/12/21 21:04:25;;;;;;;3.00;2.70;;;7.80;99.90;;;8.05;100.00;96374.97;10476787;28;20317;-69
2023/12/21 21:09:28;;;;;;;2.73;2.53;;;7.70;99.90;;;8.09;100.00;96371.72;10495485;28;20235;-69
2023/12/21 21:14:32;;;;;;;2.53;2.43;;;7.70;99.90;;;8.07;100.00;96368.28;10492056;28;20769;-69
2023/12/21 21:19:37;;;;;;;4.80;2.70;;;7.70;99.90;;;8.15;100.00;96367.72;10493791;28;20235;-69